sensor_id;sensor_type;location;lat;lon;timestamp;P1;durP1;ratioP1;P2;durP2;ratioP2
54261;SDS011;40174;52.364;6.452;2023-03-01T00:01:14;6.55;;;2.67;;
54261;SDS011;40174;52.364;6.452;2023-03-01T00:03:42;6.88;;;2.75;;
54261;SDS011;40174;52.364;6.452;2023-03-01T00:06:09;7.75;;;3.28;;
54261;SDS011;40174;52.364;6.452;2023-03-01T00:08:37;6.32;;;3.00;;
54261;SDS011;40174;52.364;6.452;2023-03-01T00:11:05;4.75;;;2.22;;
54261;SDS011;40174;52.364;6.452;2023-03-01T00:13:33;7.53;;;2.67;;
54261;SDS011;40174;52.364;6.452;2023-03-01T00:16:02;6.38;;;2.90;;
54261;SDS011;40174;52.364;6.452;2023-03-01T00:18:29;7.22;;;2.95;;
54261;SDS011;40174;52.364;6.452;2023-03-01T00:20:56;5.30;;;2.25;;
54261;SDS011;40174;52.364;6.452;2023-03-01T00:23:23;4.80;;;2.60;;
54261;SDS011;40174;52.364;6.452;2023-03-01T00:25:51;9.63;;;2.70;;
54261;SDS011;40174;52.364;6.452;2023-03-01T00:28:18;7.88;;;3.10;;
54261;SDS011;40174;52.364;6.452;2023-03-01T00:30:45;7.15;;;2.47;;
54261;SDS011;40174;52.364;6.452;2023-03-01T00:33:12;7.30;;;2.65;;
54261;SDS011;40174;52.364;6.452;2023-03-01T00:35:39;5.03;;;2.60;;
54261;SDS011;40174;52.364;6.452;2023-03-01T00:38:06;7.60;;;3.03;;
54261;SDS011;40174;52.364;6.452;2023-03-01T00:40:33;6.68;;;2.67;;
54261;SDS011;40174;52.364;6.452;2023-03-01T00:43:03;7.00;;;3.00;;
54261;SDS011;40174;52.364;6.452;2023-03-01T00:45:30;6.35;;;2.50;;
54261;SDS011;40174;52.364;6.452;2023-03-01T00:47:57;5.78;;;2.65;;
54261;SDS011;40174;52.364;6.452;2023-03-01T00:50:25;6.22;;;2.28;;
54261;SDS011;40174;52.364;6.452;2023-03-01T00:52:52;9.32;;;2.38;;
54261;SDS011;40174;52.364;6.452;2023-03-01T00:55:20;7.85;;;2.55;;
54261;SDS011;40174;52.364;6.452;2023-03-01T00:57:48;5.63;;;2.55;;
54261;SDS011;40174;52.364;6.452;2023-03-01T01:00:16;4.95;;;2.13;;
54261;SDS011;40174;52.364;6.452;2023-03-01T01:02:44;6.63;;;2.53;;
54261;SDS011;40174;52.364;6.452;2023-03-01T01:05:11;9.02;;;2.53;;
54261;SDS011;40174;52.364;6.452;2023-03-01T01:07:38;6.00;;;2.55;;
54261;SDS011;40174;52.364;6.452;2023-03-01T01:10:05;5.20;;;2.35;;
54261;SDS011;40174;52.364;6.452;2023-03-01T01:12:32;9.88;;;3.08;;
54261;SDS011;40174;52.364;6.452;2023-03-01T01:14:59;6.10;;;2.85;;
54261;SDS011;40174;52.364;6.452;2023-03-01T01:17:27;8.07;;;2.60;;
54261;SDS011;40174;52.364;6.452;2023-03-01T01:19:54;7.30;;;2.70;;
54261;SDS011;40174;52.364;6.452;2023-03-01T01:22:20;6.38;;;2.47;;
54261;SDS011;40174;52.364;6.452;2023-03-01T01:24:47;7.88;;;2.65;;
54261;SDS011;40174;52.364;6.452;2023-03-01T01:27:14;7.97;;;2.88;;
54261;SDS011;40174;52.364;6.452;2023-03-01T01:29:40;8.35;;;3.60;;
54261;SDS011;40174;52.364;6.452;2023-03-01T01:32:08;5.43;;;2.47;;
54261;SDS011;40174;52.364;6.452;2023-03-01T01:34:35;5.72;;;2.50;;
54261;SDS011;40174;52.364;6.452;2023-03-01T01:37:02;5.93;;;2.67;;
54261;SDS011;40174;52.364;6.452;2023-03-01T01:39:32;6.68;;;2.83;;
54261;SDS011;40174;52.364;6.452;2023-03-01T01:41:59;7.88;;;2.80;;
54261;SDS011;40174;52.364;6.452;2023-03-01T01:44:26;6.95;;;2.63;;
54261;SDS011;40174;52.364;6.452;2023-03-01T01:46:55;4.07;;;2.25;;
54261;SDS011;40174;52.364;6.452;2023-03-01T01:49:26;5.53;;;2.28;;
54261;SDS011;40174;52.364;6.452;2023-03-01T01:52:00;6.78;;;2.72;;
54261;SDS011;40174;52.364;6.452;2023-03-01T01:54:36;6.05;;;2.72;;
54261;SDS011;40174;52.364;6.452;2023-03-01T01:57:06;7.28;;;2.92;;
54261;SDS011;40174;52.364;6.452;2023-03-01T01:59:35;6.60;;;3.03;;
54261;SDS011;40174;52.364;6.452;2023-03-01T02:02:04;9.57;;;2.88;;
54261;SDS011;40174;52.364;6.452;2023-03-01T02:04:31;4.97;;;2.55;;
54261;SDS011;40174;52.364;6.452;2023-03-01T02:07:01;5.90;;;2.92;;
54261;SDS011;40174;52.364;6.452;2023-03-01T02:09:32;6.38;;;3.17;;
54261;SDS011;40174;52.364;6.452;2023-03-01T02:12:00;9.02;;;3.35;;
54261;SDS011;40174;52.364;6.452;2023-03-01T02:14:28;6.30;;;2.42;;
54261;SDS011;40174;52.364;6.452;2023-03-01T02:16:54;6.28;;;2.80;;
54261;SDS011;40174;52.364;6.452;2023-03-01T02:19:26;8.10;;;2.83;;
54261;SDS011;40174;52.364;6.452;2023-03-01T02:22:15;6.57;;;3.08;;
54261;SDS011;40174;52.364;6.452;2023-03-01T02:27:20;9.00;;;3.15;;
54261;SDS011;40174;52.364;6.452;2023-03-01T02:29:51;10.25;;;3.50;;
54261;SDS011;40174;52.364;6.452;2023-03-01T02:32:18;8.23;;;3.70;;
54261;SDS011;40174;52.364;6.452;2023-03-01T02:34:50;8.43;;;3.63;;
54261;SDS011;40174;52.364;6.452;2023-03-01T02:37:18;14.13;;;3.35;;
54261;SDS011;40174;52.364;6.452;2023-03-01T02:39:50;8.65;;;3.20;;
54261;SDS011;40174;52.364;6.452;2023-03-01T02:42:23;8.07;;;3.47;;
54261;SDS011;40174;52.364;6.452;2023-03-01T02:44:54;7.13;;;3.47;;
54261;SDS011;40174;52.364;6.452;2023-03-01T02:47:20;10.05;;;4.18;;
54261;SDS011;40174;52.364;6.452;2023-03-01T02:49:47;9.35;;;4.50;;
54261;SDS011;40174;52.364;6.452;2023-03-01T02:52:28;9.20;;;3.70;;
54261;SDS011;40174;52.364;6.452;2023-03-01T02:55:04;14.57;;;4.57;;
54261;SDS011;40174;52.364;6.452;2023-03-01T02:57:35;8.80;;;3.97;;
54261;SDS011;40174;52.364;6.452;2023-03-01T03:00:07;15.25;;;4.10;;
54261;SDS011;40174;52.364;6.452;2023-03-01T03:02:44;11.60;;;3.83;;
54261;SDS011;40174;52.364;6.452;2023-03-01T03:05:20;11.25;;;3.78;;
54261;SDS011;40174;52.364;6.452;2023-03-01T03:07:51;9.73;;;4.32;;
54261;SDS011;40174;52.364;6.452;2023-03-01T03:10:19;6.93;;;3.70;;
54261;SDS011;40174;52.364;6.452;2023-03-01T03:12:51;10.55;;;3.72;;
54261;SDS011;40174;52.364;6.452;2023-03-01T03:15:21;9.95;;;3.85;;
54261;SDS011;40174;52.364;6.452;2023-03-01T03:17:49;9.13;;;3.83;;
54261;SDS011;40174;52.364;6.452;2023-03-01T03:20:17;9.50;;;4.13;;
54261;SDS011;40174;52.364;6.452;2023-03-01T03:22:46;10.07;;;3.90;;
54261;SDS011;40174;52.364;6.452;2023-03-01T03:25:13;11.35;;;3.47;;
54261;SDS011;40174;52.364;6.452;2023-03-01T03:27:41;10.20;;;3.70;;
54261;SDS011;40174;52.364;6.452;2023-03-01T03:30:10;9.20;;;3.85;;
54261;SDS011;40174;52.364;6.452;2023-03-01T03:32:40;9.70;;;3.90;;
54261;SDS011;40174;52.364;6.452;2023-03-01T03:35:17;9.43;;;3.20;;
54261;SDS011;40174;52.364;6.452;2023-03-01T03:37:45;8.52;;;3.38;;
54261;SDS011;40174;52.364;6.452;2023-03-01T03:40:32;7.63;;;3.03;;
54261;SDS011;40174;52.364;6.452;2023-03-01T03:43:01;9.93;;;3.65;;
54261;SDS011;40174;52.364;6.452;2023-03-01T03:45:28;10.05;;;4.05;;
54261;SDS011;40174;52.364;6.452;2023-03-01T03:47:59;9.82;;;4.00;;
54261;SDS011;40174;52.364;6.452;2023-03-01T03:50:26;9.45;;;3.22;;
54261;SDS011;40174;52.364;6.452;2023-03-01T03:52:52;7.53;;;3.25;;
54261;SDS011;40174;52.364;6.452;2023-03-01T03:55:19;6.07;;;2.97;;
54261;SDS011;40174;52.364;6.452;2023-03-01T03:57:47;14.68;;;3.50;;
54261;SDS011;40174;52.364;6.452;2023-03-01T04:00:17;8.88;;;3.88;;
54261;SDS011;40174;52.364;6.452;2023-03-01T04:02:46;7.78;;;3.85;;
54261;SDS011;40174;52.364;6.452;2023-03-01T04:05:15;10.43;;;4.10;;
54261;SDS011;40174;52.364;6.452;2023-03-01T04:07:43;8.52;;;3.30;;
54261;SDS011;40174;52.364;6.452;2023-03-01T04:10:12;9.40;;;3.90;;
54261;SDS011;40174;52.364;6.452;2023-03-01T04:12:40;7.38;;;3.50;;
54261;SDS011;40174;52.364;6.452;2023-03-01T04:15:08;9.27;;;3.70;;
54261;SDS011;40174;52.364;6.452;2023-03-01T04:17:38;9.65;;;4.28;;
54261;SDS011;40174;52.364;6.452;2023-03-01T04:20:06;9.55;;;3.72;;
54261;SDS011;40174;52.364;6.452;2023-03-01T04:22:35;12.23;;;4.15;;
54261;SDS011;40174;52.364;6.452;2023-03-01T04:25:02;12.20;;;4.38;;
54261;SDS011;40174;52.364;6.452;2023-03-01T04:27:31;9.00;;;3.53;;
54261;SDS011;40174;52.364;6.452;2023-03-01T04:29:58;9.32;;;3.28;;
54261;SDS011;40174;52.364;6.452;2023-03-01T04:32:25;8.18;;;3.28;;
54261;SDS011;40174;52.364;6.452;2023-03-01T04:34:51;11.50;;;3.80;;
54261;SDS011;40174;52.364;6.452;2023-03-01T04:37:18;8.65;;;3.75;;
54261;SDS011;40174;52.364;6.452;2023-03-01T04:39:46;8.85;;;3.53;;
54261;SDS011;40174;52.364;6.452;2023-03-01T04:42:12;8.45;;;3.95;;
54261;SDS011;40174;52.364;6.452;2023-03-01T04:44:39;11.95;;;4.07;;
54261;SDS011;40174;52.364;6.452;2023-03-01T04:47:06;9.15;;;4.00;;
54261;SDS011;40174;52.364;6.452;2023-03-01T04:49:32;7.82;;;3.45;;
54261;SDS011;40174;52.364;6.452;2023-03-01T04:51:59;11.07;;;4.50;;
54261;SDS011;40174;52.364;6.452;2023-03-01T04:54:27;11.23;;;3.70;;
54261;SDS011;40174;52.364;6.452;2023-03-01T04:56:55;9.32;;;3.70;;
54261;SDS011;40174;52.364;6.452;2023-03-01T04:59:21;10.93;;;3.92;;
54261;SDS011;40174;52.364;6.452;2023-03-01T05:01:48;9.73;;;3.85;;
54261;SDS011;40174;52.364;6.452;2023-03-01T05:04:15;12.13;;;4.13;;
54261;SDS011;40174;52.364;6.452;2023-03-01T05:06:42;15.90;;;3.92;;
54261;SDS011;40174;52.364;6.452;2023-03-01T05:09:08;14.52;;;5.28;;
54261;SDS011;40174;52.364;6.452;2023-03-01T05:11:36;10.98;;;4.25;;
54261;SDS011;40174;52.364;6.452;2023-03-01T05:14:04;9.30;;;3.92;;
54261;SDS011;40174;52.364;6.452;2023-03-01T05:16:32;11.88;;;3.90;;
54261;SDS011;40174;52.364;6.452;2023-03-01T05:18:59;7.53;;;3.13;;
54261;SDS011;40174;52.364;6.452;2023-03-01T05:21:26;10.73;;;4.00;;
54261;SDS011;40174;52.364;6.452;2023-03-01T05:23:52;8.80;;;4.00;;
54261;SDS011;40174;52.364;6.452;2023-03-01T05:26:20;7.80;;;3.80;;
54261;SDS011;40174;52.364;6.452;2023-03-01T05:28:52;10.25;;;4.18;;
54261;SDS011;40174;52.364;6.452;2023-03-01T05:31:23;13.27;;;3.97;;
54261;SDS011;40174;52.364;6.452;2023-03-01T05:33:49;8.88;;;3.95;;
54261;SDS011;40174;52.364;6.452;2023-03-01T05:36:16;11.70;;;4.07;;
54261;SDS011;40174;52.364;6.452;2023-03-01T05:38:43;9.25;;;3.58;;
54261;SDS011;40174;52.364;6.452;2023-03-01T05:41:13;9.23;;;3.55;;
54261;SDS011;40174;52.364;6.452;2023-03-01T05:43:42;10.70;;;3.65;;
54261;SDS011;40174;52.364;6.452;2023-03-01T05:46:09;8.45;;;3.70;;
54261;SDS011;40174;52.364;6.452;2023-03-01T05:48:39;7.85;;;3.17;;
54261;SDS011;40174;52.364;6.452;2023-03-01T05:51:06;8.52;;;3.70;;
54261;SDS011;40174;52.364;6.452;2023-03-01T05:53:32;9.25;;;3.78;;
54261;SDS011;40174;52.364;6.452;2023-03-01T05:55:59;11.38;;;4.13;;
54261;SDS011;40174;52.364;6.452;2023-03-01T05:58:26;6.53;;;2.85;;
54261;SDS011;40174;52.364;6.452;2023-03-01T06:00:52;10.45;;;3.95;;
54261;SDS011;40174;52.364;6.452;2023-03-01T06:03:19;7.60;;;3.17;;
54261;SDS011;40174;52.364;6.452;2023-03-01T06:05:47;8.80;;;3.80;;
54261;SDS011;40174;52.364;6.452;2023-03-01T06:08:13;8.27;;;3.35;;
54261;SDS011;40174;52.364;6.452;2023-03-01T06:10:40;13.60;;;3.72;;
54261;SDS011;40174;52.364;6.452;2023-03-01T06:13:07;7.97;;;3.13;;
54261;SDS011;40174;52.364;6.452;2023-03-01T06:15:33;8.52;;;3.45;;
54261;SDS011;40174;52.364;6.452;2023-03-01T06:18:00;8.85;;;3.47;;
54261;SDS011;40174;52.364;6.452;2023-03-01T06:20:27;9.82;;;3.80;;
54261;SDS011;40174;52.364;6.452;2023-03-01T06:22:56;8.07;;;3.35;;
54261;SDS011;40174;52.364;6.452;2023-03-01T06:25:24;7.43;;;2.72;;
54261;SDS011;40174;52.364;6.452;2023-03-01T06:27:52;8.45;;;3.95;;
54261;SDS011;40174;52.364;6.452;2023-03-01T06:30:19;8.43;;;3.47;;
54261;SDS011;40174;52.364;6.452;2023-03-01T06:32:47;9.85;;;3.70;;
54261;SDS011;40174;52.364;6.452;2023-03-01T06:35:14;12.15;;;4.47;;
54261;SDS011;40174;52.364;6.452;2023-03-01T06:37:43;7.75;;;3.50;;
54261;SDS011;40174;52.364;6.452;2023-03-01T06:40:12;10.35;;;3.60;;
54261;SDS011;40174;52.364;6.452;2023-03-01T06:42:40;7.90;;;3.22;;
54261;SDS011;40174;52.364;6.452;2023-03-01T06:45:09;9.73;;;4.18;;
54261;SDS011;40174;52.364;6.452;2023-03-01T06:47:37;10.93;;;4.07;;
54261;SDS011;40174;52.364;6.452;2023-03-01T06:50:04;7.45;;;3.40;;
54261;SDS011;40174;52.364;6.452;2023-03-01T06:52:31;11.85;;;4.45;;
54261;SDS011;40174;52.364;6.452;2023-03-01T06:54:57;8.45;;;3.80;;
54261;SDS011;40174;52.364;6.452;2023-03-01T06:57:26;11.27;;;4.00;;
54261;SDS011;40174;52.364;6.452;2023-03-01T06:59:53;8.68;;;3.78;;
54261;SDS011;40174;52.364;6.452;2023-03-01T07:02:20;10.50;;;4.10;;
54261;SDS011;40174;52.364;6.452;2023-03-01T07:04:47;10.75;;;4.22;;
54261;SDS011;40174;52.364;6.452;2023-03-01T07:07:15;8.77;;;3.63;;
54261;SDS011;40174;52.364;6.452;2023-03-01T07:09:43;9.27;;;3.72;;
54261;SDS011;40174;52.364;6.452;2023-03-01T07:12:09;8.88;;;4.07;;
54261;SDS011;40174;52.364;6.452;2023-03-01T07:14:37;8.95;;;4.05;;
54261;SDS011;40174;52.364;6.452;2023-03-01T07:17:04;10.50;;;4.75;;
54261;SDS011;40174;52.364;6.452;2023-03-01T07:19:31;13.23;;;4.85;;
54261;SDS011;40174;52.364;6.452;2023-03-01T07:21:58;11.85;;;5.07;;
54261;SDS011;40174;52.364;6.452;2023-03-01T07:24:24;11.07;;;4.72;;
54261;SDS011;40174;52.364;6.452;2023-03-01T07:26:51;12.65;;;5.10;;
54261;SDS011;40174;52.364;6.452;2023-03-01T07:29:18;15.38;;;5.70;;
54261;SDS011;40174;52.364;6.452;2023-03-01T07:31:46;12.20;;;6.18;;
54261;SDS011;40174;52.364;6.452;2023-03-01T07:34:13;12.35;;;6.20;;
54261;SDS011;40174;52.364;6.452;2023-03-01T07:36:39;14.27;;;6.28;;
54261;SDS011;40174;52.364;6.452;2023-03-01T07:39:08;21.83;;;6.25;;
54261;SDS011;40174;52.364;6.452;2023-03-01T07:41:35;16.55;;;6.05;;
54261;SDS011;40174;52.364;6.452;2023-03-01T07:44:02;16.23;;;5.57;;
54261;SDS011;40174;52.364;6.452;2023-03-01T07:46:29;16.10;;;6.78;;
54261;SDS011;40174;52.364;6.452;2023-03-01T07:48:57;14.13;;;6.20;;
54261;SDS011;40174;52.364;6.452;2023-03-01T07:51:23;12.35;;;5.70;;
54261;SDS011;40174;52.364;6.452;2023-03-01T07:53:50;10.98;;;5.20;;
54261;SDS011;40174;52.364;6.452;2023-03-01T07:56:17;13.63;;;6.05;;
54261;SDS011;40174;52.364;6.452;2023-03-01T07:58:44;16.15;;;5.95;;
54261;SDS011;40174;52.364;6.452;2023-03-01T08:01:12;15.27;;;6.05;;
54261;SDS011;40174;52.364;6.452;2023-03-01T08:03:39;15.52;;;6.60;;
54261;SDS011;40174;52.364;6.452;2023-03-01T08:06:08;13.38;;;6.20;;
54261;SDS011;40174;52.364;6.452;2023-03-01T08:08:36;14.75;;;6.43;;
54261;SDS011;40174;52.364;6.452;2023-03-01T08:11:04;17.15;;;7.30;;
54261;SDS011;40174;52.364;6.452;2023-03-01T08:13:32;9.82;;;5.43;;
54261;SDS011;40174;52.364;6.452;2023-03-01T08:16:00;12.93;;;5.80;;
54261;SDS011;40174;52.364;6.452;2023-03-01T08:18:28;11.90;;;4.43;;
54261;SDS011;40174;52.364;6.452;2023-03-01T08:20:54;13.40;;;5.93;;
54261;SDS011;40174;52.364;6.452;2023-03-01T08:23:22;12.48;;;5.20;;
54261;SDS011;40174;52.364;6.452;2023-03-01T08:25:49;13.80;;;5.82;;
54261;SDS011;40174;52.364;6.452;2023-03-01T08:28:15;18.27;;;5.18;;
54261;SDS011;40174;52.364;6.452;2023-03-01T08:30:42;19.23;;;6.30;;
54261;SDS011;40174;52.364;6.452;2023-03-01T08:33:09;11.65;;;5.85;;
54261;SDS011;40174;52.364;6.452;2023-03-01T08:35:35;15.00;;;5.40;;
54261;SDS011;40174;52.364;6.452;2023-03-01T08:38:02;15.57;;;6.22;;
54261;SDS011;40174;52.364;6.452;2023-03-01T08:40:30;14.52;;;6.22;;
54261;SDS011;40174;52.364;6.452;2023-03-01T08:42:57;15.70;;;6.28;;
54261;SDS011;40174;52.364;6.452;2023-03-01T08:45:24;10.55;;;5.30;;
54261;SDS011;40174;52.364;6.452;2023-03-01T08:47:51;16.92;;;6.57;;
54261;SDS011;40174;52.364;6.452;2023-03-01T08:50:18;12.13;;;5.68;;
54261;SDS011;40174;52.364;6.452;2023-03-01T08:52:45;14.10;;;5.38;;
54261;SDS011;40174;52.364;6.452;2023-03-01T08:55:12;12.20;;;6.80;;
54261;SDS011;40174;52.364;6.452;2023-03-01T08:57:41;15.77;;;6.05;;
54261;SDS011;40174;52.364;6.452;2023-03-01T09:00:08;19.83;;;6.45;;
54261;SDS011;40174;52.364;6.452;2023-03-01T09:02:42;19.63;;;7.00;;
54261;SDS011;40174;52.364;6.452;2023-03-01T09:05:09;9.20;;;4.28;;
54261;SDS011;40174;52.364;6.452;2023-03-01T09:07:35;17.85;;;4.93;;
54261;SDS011;40174;52.364;6.452;2023-03-01T09:10:02;11.00;;;4.25;;
54261;SDS011;40174;52.364;6.452;2023-03-01T09:12:30;10.68;;;4.45;;
54261;SDS011;40174;52.364;6.452;2023-03-01T09:14:58;10.65;;;4.57;;
54261;SDS011;40174;52.364;6.452;2023-03-01T09:17:24;9.57;;;4.25;;
54261;SDS011;40174;52.364;6.452;2023-03-01T09:19:51;14.68;;;4.65;;
54261;SDS011;40174;52.364;6.452;2023-03-01T09:22:18;12.25;;;4.30;;
54261;SDS011;40174;52.364;6.452;2023-03-01T09:24:44;11.70;;;3.80;;
54261;SDS011;40174;52.364;6.452;2023-03-01T09:27:11;8.40;;;3.50;;
54261;SDS011;40174;52.364;6.452;2023-03-01T09:29:39;8.00;;;3.70;;
54261;SDS011;40174;52.364;6.452;2023-03-01T09:32:07;14.15;;;4.10;;
54261;SDS011;40174;52.364;6.452;2023-03-01T09:34:35;10.40;;;3.97;;
54261;SDS011;40174;52.364;6.452;2023-03-01T09:37:22;7.47;;;3.25;;
54261;SDS011;40174;52.364;6.452;2023-03-01T09:39:48;15.00;;;3.70;;
54261;SDS011;40174;52.364;6.452;2023-03-01T09:42:15;6.50;;;2.70;;
54261;SDS011;40174;52.364;6.452;2023-03-01T09:44:43;7.85;;;2.72;;
54261;SDS011;40174;52.364;6.452;2023-03-01T09:47:17;6.65;;;2.90;;
54261;SDS011;40174;52.364;6.452;2023-03-01T09:49:47;7.07;;;2.78;;
54261;SDS011;40174;52.364;6.452;2023-03-01T09:52:23;6.38;;;2.47;;
54261;SDS011;40174;52.364;6.452;2023-03-01T09:54:54;6.55;;;2.60;;
54261;SDS011;40174;52.364;6.452;2023-03-01T09:57:26;6.28;;;2.38;;
54261;SDS011;40174;52.364;6.452;2023-03-01T09:59:59;8.75;;;2.55;;
54261;SDS011;40174;52.364;6.452;2023-03-01T10:02:41;6.00;;;2.22;;
54261;SDS011;40174;52.364;6.452;2023-03-01T10:05:20;4.05;;;1.70;;
54261;SDS011;40174;52.364;6.452;2023-03-01T10:07:58;7.18;;;2.10;;
54261;SDS011;40174;52.364;6.452;2023-03-01T10:10:43;7.13;;;2.25;;
54261;SDS011;40174;52.364;6.452;2023-03-01T10:13:13;7.15;;;2.58;;
54261;SDS011;40174;52.364;6.452;2023-03-01T10:15:47;6.30;;;2.17;;
54261;SDS011;40174;52.364;6.452;2023-03-01T10:18:21;7.72;;;2.70;;
54261;SDS011;40174;52.364;6.452;2023-03-01T10:20:52;4.47;;;2.17;;
54261;SDS011;40174;52.364;6.452;2023-03-01T10:23:22;7.45;;;1.98;;
54261;SDS011;40174;52.364;6.452;2023-03-01T10:25:58;4.60;;;2.30;;
54261;SDS011;40174;52.364;6.452;2023-03-01T10:28:36;6.03;;;2.67;;
54261;SDS011;40174;52.364;6.452;2023-03-01T10:31:13;8.32;;;2.13;;
54261;SDS011;40174;52.364;6.452;2023-03-01T10:33:42;4.95;;;1.60;;
54261;SDS011;40174;52.364;6.452;2023-03-01T10:36:09;6.57;;;2.78;;
54261;SDS011;40174;52.364;6.452;2023-03-01T10:38:47;7.22;;;2.05;;
54261;SDS011;40174;52.364;6.452;2023-03-01T10:41:17;5.30;;;2.10;;
54261;SDS011;40174;52.364;6.452;2023-03-01T10:43:45;5.45;;;2.00;;
54261;SDS011;40174;52.364;6.452;2023-03-01T10:46:21;6.20;;;2.25;;
54261;SDS011;40174;52.364;6.452;2023-03-01T10:49:01;5.57;;;1.85;;
54261;SDS011;40174;52.364;6.452;2023-03-01T10:51:33;4.05;;;1.52;;
54261;SDS011;40174;52.364;6.452;2023-03-01T10:53:59;3.85;;;1.85;;
54261;SDS011;40174;52.364;6.452;2023-03-01T10:56:27;4.85;;;2.13;;
54261;SDS011;40174;52.364;6.452;2023-03-01T10:58:59;6.00;;;1.88;;
54261;SDS011;40174;52.364;6.452;2023-03-01T11:01:27;4.63;;;1.92;;
54261;SDS011;40174;52.364;6.452;2023-03-01T11:04:09;7.28;;;2.28;;
54261;SDS011;40174;52.364;6.452;2023-03-01T11:06:38;5.82;;;2.00;;
54261;SDS011;40174;52.364;6.452;2023-03-01T11:09:13;5.38;;;2.22;;
54261;SDS011;40174;52.364;6.452;2023-03-01T11:11:40;7.18;;;2.00;;
54261;SDS011;40174;52.364;6.452;2023-03-01T11:14:12;5.90;;;2.28;;
54261;SDS011;40174;52.364;6.452;2023-03-01T11:16:44;6.88;;;2.30;;
54261;SDS011;40174;52.364;6.452;2023-03-01T11:19:17;9.35;;;2.67;;
54261;SDS011;40174;52.364;6.452;2023-03-01T11:21:55;7.80;;;2.50;;
54261;SDS011;40174;52.364;6.452;2023-03-01T11:24:27;7.60;;;2.45;;
54261;SDS011;40174;52.364;6.452;2023-03-01T11:26:58;5.05;;;2.17;;
54261;SDS011;40174;52.364;6.452;2023-03-01T11:29:30;5.60;;;2.88;;
54261;SDS011;40174;52.364;6.452;2023-03-01T11:32:01;5.53;;;1.90;;
54261;SDS011;40174;52.364;6.452;2023-03-01T11:34:38;6.13;;;2.20;;
54261;SDS011;40174;52.364;6.452;2023-03-01T11:37:11;6.88;;;1.90;;
54261;SDS011;40174;52.364;6.452;2023-03-01T11:39:51;5.60;;;1.70;;
54261;SDS011;40174;52.364;6.452;2023-03-01T11:42:27;7.82;;;2.25;;
54261;SDS011;40174;52.364;6.452;2023-03-01T11:44:59;9.75;;;2.60;;
54261;SDS011;40174;52.364;6.452;2023-03-01T11:47:33;6.80;;;2.40;;
54261;SDS011;40174;52.364;6.452;2023-03-01T11:50:16;5.97;;;2.10;;
54261;SDS011;40174;52.364;6.452;2023-03-01T11:52:55;6.78;;;2.00;;
54261;SDS011;40174;52.364;6.452;2023-03-01T11:55:35;5.30;;;2.22;;
54261;SDS011;40174;52.364;6.452;2023-03-01T11:58:14;8.43;;;2.75;;
54261;SDS011;40174;52.364;6.452;2023-03-01T12:01:01;7.53;;;2.30;;
54261;SDS011;40174;52.364;6.452;2023-03-01T12:03:40;9.20;;;2.33;;
54261;SDS011;40174;52.364;6.452;2023-03-01T12:06:36;5.30;;;2.00;;
54261;SDS011;40174;52.364;6.452;2023-03-01T12:09:18;6.90;;;2.40;;
54261;SDS011;40174;52.364;6.452;2023-03-01T12:15:03;7.40;;;2.70;;
54261;SDS011;40174;52.364;6.452;2023-03-01T12:17:48;6.55;;;2.25;;
54261;SDS011;40174;52.364;6.452;2023-03-01T12:20:30;7.55;;;2.22;;
54261;SDS011;40174;52.364;6.452;2023-03-01T12:26:17;4.72;;;2.10;;
54261;SDS011;40174;52.364;6.452;2023-03-01T12:29:02;4.53;;;1.67;;
54261;SDS011;40174;52.364;6.452;2023-03-01T12:34:57;5.78;;;2.13;;
54261;SDS011;40174;52.364;6.452;2023-03-01T12:37:36;6.47;;;2.22;;
54261;SDS011;40174;52.364;6.452;2023-03-01T12:40:22;7.28;;;2.17;;
54261;SDS011;40174;52.364;6.452;2023-03-01T12:43:01;6.13;;;2.55;;
54261;SDS011;40174;52.364;6.452;2023-03-01T12:45:45;8.88;;;2.47;;
54261;SDS011;40174;52.364;6.452;2023-03-01T12:48:22;6.65;;;2.08;;
54261;SDS011;40174;52.364;6.452;2023-03-01T12:50:58;4.95;;;1.98;;
54261;SDS011;40174;52.364;6.452;2023-03-01T12:53:29;6.75;;;2.20;;
54261;SDS011;40174;52.364;6.452;2023-03-01T12:55:59;5.28;;;2.50;;
54261;SDS011;40174;52.364;6.452;2023-03-01T12:58:29;6.00;;;2.50;;
54261;SDS011;40174;52.364;6.452;2023-03-01T13:01:01;3.65;;;1.50;;
54261;SDS011;40174;52.364;6.452;2023-03-01T13:03:47;7.15;;;1.95;;
54261;SDS011;40174;52.364;6.452;2023-03-01T13:06:24;7.05;;;2.95;;
54261;SDS011;40174;52.364;6.452;2023-03-01T13:08:56;4.00;;;2.00;;
54261;SDS011;40174;52.364;6.452;2023-03-01T13:11:27;4.90;;;1.92;;
54261;SDS011;40174;52.364;6.452;2023-03-01T13:16:52;5.78;;;2.67;;
54261;SDS011;40174;52.364;6.452;2023-03-01T13:19:20;5.43;;;2.13;;
54261;SDS011;40174;52.364;6.452;2023-03-01T13:21:48;5.13;;;1.90;;
54261;SDS011;40174;52.364;6.452;2023-03-01T13:24:23;5.47;;;2.70;;
54261;SDS011;40174;52.364;6.452;2023-03-01T13:27:10;6.53;;;2.72;;
54261;SDS011;40174;52.364;6.452;2023-03-01T13:29:50;8.73;;;2.63;;
54261;SDS011;40174;52.364;6.452;2023-03-01T13:32:21;6.90;;;2.55;;
54261;SDS011;40174;52.364;6.452;2023-03-01T13:34:50;7.03;;;2.45;;
54261;SDS011;40174;52.364;6.452;2023-03-01T13:37:19;8.85;;;2.50;;
54261;SDS011;40174;52.364;6.452;2023-03-01T13:39:54;5.53;;;2.42;;
54261;SDS011;40174;52.364;6.452;2023-03-01T13:42:33;11.32;;;2.65;;
54261;SDS011;40174;52.364;6.452;2023-03-01T13:45:24;6.28;;;2.38;;
54261;SDS011;40174;52.364;6.452;2023-03-01T13:48:08;4.63;;;2.20;;
54261;SDS011;40174;52.364;6.452;2023-03-01T13:50:38;7.10;;;2.00;;
54261;SDS011;40174;52.364;6.452;2023-03-01T13:53:12;4.80;;;2.00;;
54261;SDS011;40174;52.364;6.452;2023-03-01T13:55:42;6.60;;;2.15;;
54261;SDS011;40174;52.364;6.452;2023-03-01T13:58:15;6.95;;;2.47;;
54261;SDS011;40174;52.364;6.452;2023-03-01T14:00:45;7.38;;;2.30;;
54261;SDS011;40174;52.364;6.452;2023-03-01T14:03:14;6.55;;;2.15;;
54261;SDS011;40174;52.364;6.452;2023-03-01T14:05:43;5.50;;;2.35;;
54261;SDS011;40174;52.364;6.452;2023-03-01T14:08:24;6.72;;;1.92;;
54261;SDS011;40174;52.364;6.452;2023-03-01T14:11:02;5.30;;;2.13;;
54261;SDS011;40174;52.364;6.452;2023-03-01T14:13:55;7.90;;;2.67;;
54261;SDS011;40174;52.364;6.452;2023-03-01T14:16:48;7.50;;;2.30;;
54261;SDS011;40174;52.364;6.452;2023-03-01T14:19:27;6.68;;;2.38;;
54261;SDS011;40174;52.364;6.452;2023-03-01T14:21:58;6.88;;;2.90;;
54261;SDS011;40174;52.364;6.452;2023-03-01T14:24:40;5.78;;;2.53;;
54261;SDS011;40174;52.364;6.452;2023-03-01T14:27:14;4.18;;;1.67;;
54261;SDS011;40174;52.364;6.452;2023-03-01T14:29:42;5.82;;;2.22;;
54261;SDS011;40174;52.364;6.452;2023-03-01T14:32:10;6.22;;;2.30;;
54261;SDS011;40174;52.364;6.452;2023-03-01T14:34:44;8.10;;;2.28;;
54261;SDS011;40174;52.364;6.452;2023-03-01T14:37:16;5.50;;;2.20;;
54261;SDS011;40174;52.364;6.452;2023-03-01T14:39:45;5.53;;;2.50;;
54261;SDS011;40174;52.364;6.452;2023-03-01T14:42:12;7.28;;;2.50;;
54261;SDS011;40174;52.364;6.452;2023-03-01T14:44:40;4.50;;;1.98;;
54261;SDS011;40174;52.364;6.452;2023-03-01T14:47:10;7.88;;;2.53;;
54261;SDS011;40174;52.364;6.452;2023-03-01T14:49:39;5.80;;;2.03;;
54261;SDS011;40174;52.364;6.452;2023-03-01T14:52:17;6.97;;;2.38;;
54261;SDS011;40174;52.364;6.452;2023-03-01T14:54:46;6.72;;;2.45;;
54261;SDS011;40174;52.364;6.452;2023-03-01T14:57:15;6.93;;;2.03;;
54261;SDS011;40174;52.364;6.452;2023-03-01T14:59:43;6.13;;;2.13;;
54261;SDS011;40174;52.364;6.452;2023-03-01T15:02:11;6.93;;;2.10;;
54261;SDS011;40174;52.364;6.452;2023-03-01T15:04:42;3.90;;;1.88;;
54261;SDS011;40174;52.364;6.452;2023-03-01T15:07:13;4.25;;;1.92;;
54261;SDS011;40174;52.364;6.452;2023-03-01T15:09:40;4.97;;;1.90;;
54261;SDS011;40174;52.364;6.452;2023-03-01T15:15:21;4.47;;;1.92;;
54261;SDS011;40174;52.364;6.452;2023-03-01T15:18:00;8.38;;;2.00;;
54261;SDS011;40174;52.364;6.452;2023-03-01T15:20:29;5.38;;;2.38;;